Time;durP1;ratioP1;P1;durP2;ratioP2;P2;SDS_P1;SDS_P2;PMS_P1;PMS_P2;Temp;Humidity;BMP_temperature;BMP_pressure;BME280_temperature;BME280_humidity;BME280_pressure;Samples;Min_cycle;Max_cycle;Signal;HPM_P1;HPM_P2
2022/01/12 00:01:15;;;;;;;5.65;3.47;;;;;;;;;;5040887;28;20041;-76
2022/01/12 00:03:44;;;;;;;7.50;3.45;;;;;;;;;;5041516;28;20076;-76
2022/01/12 00:06:12;;;;;;;5.03;2.72;;;;;;;;;;5058601;28;20040;-75
2022/01/12 00:08:40;;;;;;;6.38;3.70;;;;;;;;;;5058878;28;20041;-77
2022/01/12 00:11:08;;;;;;;6.07;3.50;;;;;;;;;;5041320;28;20045;-77
2022/01/12 00:13:36;;;;;;;4.80;3.05;;;;;;;;;;5041343;28;20083;-75
2022/01/12 00:16:04;;;;;;;9.40;3.13;;;;;;;;;;5057531;28;20037;-76
2022/01/12 00:18:32;;;;;;;6.00;3.60;;;;;;;;;;5058876;28;20483;-80
2022/01/12 00:21:02;;;;;;;9.15;5.03;;;;;;;;;;5041013;28;20079;-80
2022/01/12 00:23:30;;;;;;;10.02;4.72;;;;;;;;;;5058946;28;20472;-75
2022/01/12 00:34:07;;;;;;;8.15;3.90;;;;;;;;;;5037541;28;20145;-76
2022/01/12 00:36:37;;;;;;;6.35;3.92;;;;;;;;;;5021346;28;20105;-75
2022/01/12 00:39:06;;;;;;;6.70;3.60;;;;;;;;;;5037721;28;20040;-76
2022/01/12 00:41:36;;;;;;;6.97;3.80;;;;;;;;;;5021363;28;20040;-80
2022/01/12 00:44:07;;;;;;;6.45;3.88;;;;;;;;;;5037230;28;20033;-80
2022/01/12 00:46:35;;;;;;;4.72;3.13;;;;;;;;;;5055646;28;20132;-76
2022/01/12 00:49:03;;;;;;;4.47;3.70;;;;;;;;;;5055268;28;20052;-75
2022/01/12 00:51:33;;;;;;;4.80;3.40;;;;;;;;;;5021168;28;20099;-76
2022/01/12 00:54:01;;;;;;;5.35;3.38;;;;;;;;;;5053693;28;20047;-76
2022/01/12 00:56:28;;;;;;;6.00;3.30;;;;;;;;;;5055037;28;20040;-79
2022/01/12 00:58:56;;;;;;;5.50;3.80;;;;;;;;;;5037425;28;20048;-76
2022/01/12 01:01:23;;;;;;;5.78;3.50;;;;;;;;;;5037313;28;20045;-76
2022/01/12 01:03:52;;;;;;;7.85;3.30;;;;;;;;;;5037471;28;20044;-76
2022/01/12 01:06:22;;;;;;;4.28;3.33;;;;;;;;;;5053855;28;20049;-79
2022/01/12 01:08:51;;;;;;;6.75;3.22;;;;;;;;;;5037053;28;20612;-79
2022/01/12 01:11:24;;;;;;;7.60;3.75;;;;;;;;;;5053989;28;20100;-75
2022/01/12 01:16:53;;;;;;;5.63;3.28;;;;;;;;;;5036775;28;20416;-76
2022/01/12 01:27:40;;;;;;;5.07;3.60;;;;;;;;;;5036571;28;20083;-76
2022/01/12 01:30:08;;;;;;;6.35;3.97;;;;;;;;;;5020288;28;20048;-75
2022/01/12 01:32:36;;;;;;;5.22;3.47;;;;;;;;;;5052916;28;20088;-79
2022/01/12 01:35:04;;;;;;;7.70;3.67;;;;;;;;;;5036857;28;20511;-76
2022/01/12 01:37:33;;;;;;;5.72;3.65;;;;;;;;;;5036468;28;20168;-75
2022/01/12 01:40:01;;;;;;;6.53;3.40;;;;;;;;;;5035564;28;20049;-79
2022/01/12 01:42:52;;;;;;;5.55;3.70;;;;;;;;;;5036649;28;20440;-76
2022/01/12 01:53:46;;;;;;;7.55;3.45;;;;;;;;;;5035988;28;20075;-79
2022/01/12 01:56:19;;;;;;;8.82;3.88;;;;;;;;;;5035808;28;20037;-79
2022/01/12 01:58:47;;;;;;;5.45;3.85;;;;;;;;;;5036569;28;20491;-76
2022/01/12 02:01:17;;;;;;;5.30;3.50;;;;;;;;;;5019750;28;20072;-79
2022/01/12 02:03:54;;;;;;;7.28;3.65;;;;;;;;;;5020568;28;20049;-76
2022/01/12 02:06:22;;;;;;;4.60;3.53;;;;;;;;;;5035875;28;20200;-76
2022/01/12 02:08:52;;;;;;;10.75;4.05;;;;;;;;;;5036100;28;20432;-76
2022/01/12 02:11:32;;;;;;;6.93;4.00;;;;;;;;;;5035751;28;20060;-75
2022/01/12 02:14:12;;;;;;;8.20;3.78;;;;;;;;;;5020593;28;20500;-75
2022/01/12 02:16:51;;;;;;;9.23;3.88;;;;;;;;;;5035965;28;20045;-75
2022/01/12 02:36:31;;;;;;;9.35;3.83;;;;;;;;;;5035508;28;20041;-80
2022/01/12 02:41:46;;;;;;;6.38;2.95;;;;;;;;;;5053164;28;20393;-76
2022/01/12 02:55:09;;;;;;;12.05;4.10;;;;;;;;;;5052855;28;20029;-76
2022/01/12 02:57:36;;;;;;;6.80;3.58;;;;;;;;;;5053047;28;20393;-80
2022/01/12 03:00:12;;;;;;;8.98;3.67;;;;;;;;;;5027321;28;20083;-76
2022/01/12 03:02:43;;;;;;;4.15;3.38;;;;;;;;;;5035539;28;20045;-76
2022/01/12 03:06:18;;;;;;;7.63;3.58;;;;;;;;;;5034797;28;20504;-75
2022/01/12 03:08:15;;;;;;;9.02;3.80;;;;;;;;;;5035590;28;20048;-75
2022/01/12 03:10:42;;;;;;;9.63;4.05;;;;;;;;;;5035612;28;20045;-75
2022/01/12 03:13:11;;;;;;;14.63;3.60;;;;;;;;;;5052816;28;20037;-75
2022/01/12 03:15:40;;;;;;;5.32;3.20;;;;;;;;;;5035074;28;20148;-76
2022/01/12 03:18:15;;;;;;;6.68;3.88;;;;;;;;;;5034838;28;20460;-75
2022/01/12 03:20:45;;;;;;;5.00;3.55;;;;;;;;;;5034263;28;20045;-79
2022/01/12 03:23:17;;;;;;;6.82;3.63;;;;;;;;;;5035089;28;20056;-76
2022/01/12 03:25:45;;;;;;;6.95;3.45;;;;;;;;;;5035514;28;20124;-76
2022/01/12 03:28:13;;;;;;;5.85;3.72;;;;;;;;;;5018098;28;20459;-76
2022/01/12 03:30:54;;;;;;;9.35;4.10;;;;;;;;;;5035001;28;20075;-76
2022/01/12 03:33:49;;;;;;;8.70;4.00;;;;;;;;;;5034722;28;20049;-79
2022/01/12 03:39:12;;;;;;;5.53;4.00;;;;;;;;;;5034884;28;20045;-76
2022/01/12 03:41:44;;;;;;;9.20;3.67;;;;;;;;;;5035031;28;20168;-76
2022/01/12 03:44:13;;;;;;;4.75;3.50;;;;;;;;;;5035041;28;20067;-77
2022/01/12 03:46:44;;;;;;;8.50;4.13;;;;;;;;;;5035106;28;20097;-75
2022/01/12 03:49:14;;;;;;;9.88;3.95;;;;;;;;;;5035379;28;20484;-76
2022/01/12 03:51:44;;;;;;;5.47;4.18;;;;;;;;;;5018510;28;20064;-76
2022/01/12 03:54:11;;;;;;;7.45;3.90;;;;;;;;;;5034325;28;20094;-76
2022/01/12 03:56:41;;;;;;;10.73;4.22;;;;;;;;;;5034705;28;20111;-75
2022/01/12 03:59:10;;;;;;;6.53;3.53;;;;;;;;;;5018274;28;20454;-76
2022/01/12 04:01:38;;;;;;;6.88;3.72;;;;;;;;;;5034837;28;20045;-76
2022/01/12 04:04:19;;;;;;;8.40;3.63;;;;;;;;;;5055127;28;20048;-79
2022/01/12 04:09:43;;;;;;;6.22;3.25;;;;;;;;;;5038439;28;20392;-79
2022/01/12 04:12:12;;;;;;;4.70;3.33;;;;;;;;;;5038034;28;20032;-75
2022/01/12 04:14:49;;;;;;;5.07;3.03;;;;;;;;;;5038021;28;20091;-75
2022/01/12 04:17:17;;;;;;;7.60;3.30;;;;;;;;;;5021708;28;20492;-79
2022/01/12 04:19:46;;;;;;;7.40;3.30;;;;;;;;;;5037797;28;20057;-79
2022/01/12 04:25:09;;;;;;;6.50;3.53;;;;;;;;;;5037943;28;20044;-79
2022/01/12 04:27:39;;;;;;;6.80;3.88;;;;;;;;;;5037980;28;20508;-79
2022/01/12 04:30:09;;;;;;;6.05;3.63;;;;;;;;;;5038218;28;20095;-79
2022/01/12 04:32:41;;;;;;;12.73;4.38;;;;;;;;;;5037299;28;20037;-76
2022/01/12 04:35:10;;;;;;;5.93;3.60;;;;;;;;;;5054431;28;20087;-79
2022/01/12 04:37:38;;;;;;;10.02;4.00;;;;;;;;;;5055694;28;20085;-76
2022/01/12 04:40:06;;;;;;;7.32;3.40;;;;;;;;;;5037848;28;20120;-75
2022/01/12 04:42:35;;;;;;;6.75;3.42;;;;;;;;;;5055574;28;20037;-76
2022/01/12 04:45:33;;;;;;;6.63;3.60;;;;;;;;;;5037652;28;20380;-75
2022/01/12 04:51:00;;;;;;;7.07;3.08;;;;;;;;;;5025918;28;20043;-76
2022/01/12 04:53:30;;;;;;;6.60;3.50;;;;;;;;;;5054094;28;20404;-79
2022/01/12 04:56:00;;;;;;;5.07;3.33;;;;;;;;;;5021099;28;20131;-75
2022/01/12 04:58:30;;;;;;;6.40;3.10;;;;;;;;;;5037199;28;20053;-76
2022/01/12 05:01:05;;;;;;;6.05;3.33;;;;;;;;;;5037438;28;20052;-79
2022/01/12 05:09:09;;;;;;;6.15;3.08;;;;;;;;;;5054890;28;20120;-75
2022/01/12 05:14:34;;;;;;;7.57;3.50;;;;;;;;;;5036656;28;20476;-75
2022/01/12 05:17:01;;;;;;;7.55;3.70;;;;;;;;;;5036687;28;20132;-76
2022/01/12 05:19:29;;;;;;;5.68;3.05;;;;;;;;;;5036628;28;20052;-76
2022/01/12 05:21:57;;;;;;;6.30;3.88;;;;;;;;;;5036838;28;20480;-79
2022/01/12 05:24:26;;;;;;;5.72;3.60;;;;;;;;;;5036934;28;20115;-76
2022/01/12 05:26:53;;;;;;;8.88;3.30;;;;;;;;;;5054285;28;20053;-76
2022/01/12 05:29:22;;;;;;;7.25;3.40;;;;;;;;;;5036450;28;20550;-79
2022/01/12 05:31:51;;;;;;;5.80;4.03;;;;;;;;;;5036166;28;20045;-75
2022/01/12 05:34:18;;;;;;;6.50;3.42;;;;;;;;;;5036417;28;20041;-76
2022/01/12 05:36:46;;;;;;;5.38;3.20;;;;;;;;;;5036558;28;20053;-76
2022/01/12 05:39:14;;;;;;;9.45;3.63;;;;;;;;;;5054115;28;20041;-76
2022/01/12 05:41:41;;;;;;;5.32;3.72;;;;;;;;;;5036444;28;20052;-76
2022/01/12 05:44:10;;;;;;;4.60;3.47;;;;;;;;;;5036348;28;20053;-75
2022/01/12 05:46:41;;;;;;;9.30;4.03;;;;;;;;;;5036748;28;20068;-76
2022/01/12 05:52:04;;;;;;;6.00;3.47;;;;;;;;;;5036420;28;20044;-79
2022/01/12 05:54:32;;;;;;;7.38;3.97;;;;;;;;;;5019880;28;20049;-76
2022/01/12 05:57:01;;;;;;;6.45;4.28;;;;;;;;;;5019416;28;20556;-76
2022/01/12 05:59:28;;;;;;;7.40;3.88;;;;;;;;;;5051532;28;20422;-76
2022/01/12 06:01:57;;;;;;;4.38;3.40;;;;;;;;;;5056063;28;20502;-76
2022/01/12 06:04:25;;;;;;;4.28;3.58;;;;;;;;;;5055602;28;20080;-76
2022/01/12 06:06:56;;;;;;;6.68;4.10;;;;;;;;;;5056082;28;20045;-79
2022/01/12 06:09:26;;;;;;;6.88;4.10;;;;;;;;;;5056077;28;20044;-76
2022/01/12 06:11:54;;;;;;;10.27;3.92;;;;;;;;;;5055898;28;20055;-75
2022/01/12 06:14:22;;;;;;;6.47;4.03;;;;;;;;;;5055428;28;20071;-77
2022/01/12 06:16:50;;;;;;;4.38;3.60;;;;;;;;;;5073594;28;20040;-79
2022/01/12 06:19:18;;;;;;;9.73;4.20;;;;;;;;;;5055723;28;20040;-79
2022/01/12 06:22:05;;;;;;;5.68;3.78;;;;;;;;;;5055887;28;20055;-79
2022/01/12 06:24:33;;;;;;;7.25;3.80;;;;;;;;;;5038633;28;20434;-79
2022/01/12 06:27:03;;;;;;;4.90;4.03;;;;;;;;;;5039142;28;20503;-75
2022/01/12 06:29:43;;;;;;;6.95;4.47;;;;;;;;;;5055781;28;20068;-79
2022/01/12 06:32:13;;;;;;;10.02;3.97;;;;;;;;;;5073200;28;20043;-75
2022/01/12 06:34:40;;;;;;;7.15;4.00;;;;;;;;;;5055510;28;20403;-75
2022/01/12 06:37:08;;;;;;;10.07;4.25;;;;;;;;;;5055022;28;20055;-75
2022/01/12 06:39:37;;;;;;;7.45;4.00;;;;;;;;;;5055140;28;20048;-75
2022/01/12 06:42:06;;;;;;;8.75;4.05;;;;;;;;;;5055551;28;20083;-75
2022/01/12 06:44:34;;;;;;;6.65;4.25;;;;;;;;;;5054905;28;20508;-76
2022/01/12 06:47:03;;;;;;;12.63;5.93;;;;;;;;;;5055258;28;20040;-77
2022/01/12 06:49:34;;;;;;;13.68;6.15;;;;;;;;;;5073203;28;20037;-79
2022/01/12 06:52:03;;;;;;;16.13;6.47;;;;;;;;;;5055367;28;20136;-75
2022/01/12 06:54:31;;;;;;;16.42;7.57;;;;;;;;;;5038838;28;20499;-75
2022/01/12 06:56:59;;;;;;;9.77;6.10;;;;;;;;;;5037991;28;20037;-74
2022/01/12 06:59:27;;;;;;;14.15;6.38;;;;;;;;;;5055214;28;20072;-75
2022/01/12 07:01:57;;;;;;;11.48;6.32;;;;;;;;;;5055269;28;20044;-77
2022/01/12 07:04:32;;;;;;;11.43;6.28;;;;;;;;;;5039607;28;20044;-75
2022/01/12 07:07:00;;;;;;;11.50;5.90;;;;;;;;;;5055034;28;20104;-77
2022/01/12 07:09:31;;;;;;;14.13;6.35;;;;;;;;;;5054360;28;20044;-77
2022/01/12 07:12:04;;;;;;;10.63;6.45;;;;;;;;;;5039288;28;20044;-78
2022/01/12 07:14:37;;;;;;;10.88;6.25;;;;;;;;;;5054928;28;20045;-75
2022/01/12 07:17:06;;;;;;;13.65;6.85;;;;;;;;;;5037831;28;20047;-76
2022/01/12 07:19:34;;;;;;;13.77;6.53;;;;;;;;;;5054241;28;20102;-80
2022/01/12 07:22:03;;;;;;;14.77;6.35;;;;;;;;;;5053947;28;20458;-75
2022/01/12 07:24:31;;;;;;;17.67;7.03;;;;;;;;;;5054224;28;20135;-75
2022/01/12 07:27:04;;;;;;;13.23;6.25;;;;;;;;;;5054123;28;20036;-81
2022/01/12 07:29:31;;;;;;;15.27;6.72;;;;;;;;;;5038377;28;20040;-81
2022/01/12 07:32:01;;;;;;;16.38;7.22;;;;;;;;;;5054219;28;20416;-77
2022/01/12 07:34:29;;;;;;;14.55;7.65;;;;;;;;;;5054122;28;20062;-81
2022/01/12 07:36:59;;;;;;;19.13;7.35;;;;;;;;;;5074585;28;20048;-76
2022/01/12 07:39:26;;;;;;;16.35;6.82;;;;;;;;;;5076328;28;20041;-77
2022/01/12 07:41:53;;;;;;;18.02;6.80;;;;;;;;;;5058803;28;20119;-76
2022/01/12 07:44:27;;;;;;;14.90;9.52;;;;;;;;;;5058332;28;20061;-74
2022/01/12 07:46:55;;;;;;;18.95;7.78;;;;;;;;;;5026414;28;20156;-75
2022/01/12 07:49:22;;;;;;;19.65;7.20;;;;;;;;;;5056361;28;20040;-79
2022/01/12 07:51:50;;;;;;;15.55;6.85;;;;;;;;;;5037604;28;20079;-79
2022/01/12 07:54:17;;;;;;;11.73;6.47;;;;;;;;;;5056122;28;20047;-79
2022/01/12 07:56:45;;;;;;;14.13;6.20;;;;;;;;;;5038215;28;20065;-75
2022/01/12 07:59:14;;;;;;;12.50;6.80;;;;;;;;;;5021803;28;20131;-79
2022/01/12 08:01:41;;;;;;;21.77;9.98;;;;;;;;;;5038473;28;20041;-82
2022/01/12 08:04:09;;;;;;;13.18;8.52;;;;;;;;;;5021199;28;20102;-74
2022/01/12 08:06:37;;;;;;;19.98;6.90;;;;;;;;;;5037376;28;20036;-81
2022/01/12 08:09:07;;;;;;;14.57;6.45;;;;;;;;;;5037622;28;20559;-75
2022/01/12 08:11:35;;;;;;;22.13;8.30;;;;;;;;;;5035784;28;20051;-74
2022/01/12 08:14:02;;;;;;;18.23;6.90;;;;;;;;;;5030783;28;20045;-75
2022/01/12 08:16:31;;;;;;;20.80;9.20;;;;;;;;;;5037361;28;20080;-76
2022/01/12 08:18:59;;;;;;;17.77;7.72;;;;;;;;;;5055506;28;20091;-80
2022/01/12 08:21:31;;;;;;;17.15;6.80;;;;;;;;;;5042430;28;20084;-75
2022/01/12 08:24:00;;;;;;;17.52;7.70;;;;;;;;;;5035147;28;20072;-75
2022/01/12 08:26:32;;;;;;;16.00;8.20;;;;;;;;;;5035362;28;20033;-80
2022/01/12 08:28:59;;;;;;;13.52;6.60;;;;;;;;;;5035137;28;20042;-81
2022/01/12 08:31:30;;;;;;;16.58;7.20;;;;;;;;;;5017540;28;20128;-76
2022/01/12 08:33:58;;;;;;;15.70;7.45;;;;;;;;;;5016933;28;20054;-76
2022/01/12 08:36:25;;;;;;;14.50;7.90;;;;;;;;;;5017558;28;20037;-75
2022/01/12 08:38:57;;;;;;;13.95;7.60;;;;;;;;;;5016932;28;20477;-76
2022/01/12 08:41:26;;;;;;;12.37;7.90;;;;;;;;;;5034897;28;20480;-75
2022/01/12 08:43:54;;;;;;;20.10;8.65;;;;;;;;;;4999998;28;20308;-77
2022/01/12 08:46:26;;;;;;;13.57;7.68;;;;;;;;;;5001620;28;20037;-75
2022/01/12 08:48:55;;;;;;;13.75;7.57;;;;;;;;;;5016509;28;20505;-80
2022/01/12 08:51:22;;;;;;;14.20;7.72;;;;;;;;;;5035144;28;20497;-76
2022/01/12 08:53:51;;;;;;;19.80;8.65;;;;;;;;;;5034958;28;20038;-75
2022/01/12 08:56:20;;;;;;;13.68;7.80;;;;;;;;;;5034264;28;20051;-77
2022/01/12 08:58:48;;;;;;;16.23;8.18;;;;;;;;;;5017450;28;20439;-76
2022/01/12 09:01:16;;;;;;;16.02;8.98;;;;;;;;;;5035055;28;20048;-76
2022/01/12 09:03:46;;;;;;;15.77;8.02;;;;;;;;;;5017484;28;20045;-77
2022/01/12 09:06:14;;;;;;;13.25;7.00;;;;;;;;;;5016989;28;20044;-77
2022/01/12 09:08:44;;;;;;;15.02;6.38;;;;;;;;;;5034156;28;20125;-81
2022/01/12 09:11:18;;;;;;;12.35;6.65;;;;;;;;;;5000703;28;20034;-77
2022/01/12 09:13:46;;;;;;;11.50;5.60;;;;;;;;;;5034142;28;20390;-77
2022/01/12 09:16:17;;;;;;;7.05;4.40;;;;;;;;;;5030075;28;20124;-76
2022/01/12 09:18:45;;;;;;;8.18;4.18;;;;;;;;;;5023253;28;20042;-76
2022/01/12 09:21:14;;;;;;;8.45;4.63;;;;;;;;;;5007144;28;20041;-76
2022/01/12 09:23:44;;;;;;;9.80;4.18;;;;;;;;;;5051930;28;20458;-77
2022/01/12 09:26:13;;;;;;;6.75;4.10;;;;;;;;;;5049848;28;20091;-81
2022/01/12 09:28:41;;;;;;;6.50;3.80;;;;;;;;;;5009065;28;20048;-76
2022/01/12 09:31:09;;;;;;;6.78;4.10;;;;;;;;;;5024988;28;20045;-77
2022/01/12 09:33:37;;;;;;;4.75;2.70;;;;;;;;;;5064969;28;20047;-81
2022/01/12 09:36:09;;;;;;;5.65;2.88;;;;;;;;;;5060471;28;20143;-76
2022/01/12 09:38:36;;;;;;;7.03;2.92;;;;;;;;;;5054133;28;20045;-82
2022/01/12 09:41:06;;;;;;;6.28;3.20;;;;;;;;;;5035681;28;20048;-77
2022/01/12 09:43:36;;;;;;;5.05;2.90;;;;;;;;;;5053345;28;20048;-78
2022/01/12 09:46:06;;;;;;;5.30;2.80;;;;;;;;;;5053251;28;20045;-77
2022/01/12 09:48:37;;;;;;;6.00;2.95;;;;;;;;;;5040858;28;20055;-81
2022/01/12 09:51:09;;;;;;;10.90;2.88;;;;;;;;;;5039384;28;20388;-75
2022/01/12 09:53:37;;;;;;;4.78;3.28;;;;;;;;;;5033820;28;20519;-78
2022/01/12 09:56:18;;;;;;;5.70;2.53;;;;;;;;;;5052712;28;20037;-78
2022/01/12 09:58:51;;;;;;;6.05;3.25;;;;;;;;;;5030801;28;20060;-80
2022/01/12 10:01:26;;;;;;;5.00;2.97;;;;;;;;;;5051675;28;20043;-76
2022/01/12 10:04:06;;;;;;;6.65;3.30;;;;;;;;;;5053339;28;20040;-77
2022/01/12 10:06:41;;;;;;;3.33;2.78;;;;;;;;;;5053265;28;20119;-76
2022/01/12 10:09:12;;;;;;;6.43;3.30;;;;;;;;;;5034792;28;20456;-74
2022/01/12 10:11:57;;;;;;;6.28;3.70;;;;;;;;;;5018550;28;20080;-77
2022/01/12 10:14:59;;;;;;;5.38;3.28;;;;;;;;;;5019251;28;20045;-80
2022/01/12 10:17:36;;;;;;;4.95;2.90;;;;;;;;;;5019868;28;20044;-78
2022/01/12 10:20:10;;;;;;;7.68;4.70;;;;;;;;;;5132997;22;20351;-75
2022/01/12 10:22:58;;;;;;;8.23;3.42;;;;;;;;;;5031798;28;20128;-68
2022/01/12 10:25:28;;;;;;;4.35;2.80;;;;;;;;;;5023281;28;20057;-75
2022/01/12 10:27:57;;;;;;;6.15;3.78;;;;;;;;;;5031815;28;20411;-67
2022/01/12 10:30:32;;;;;;;4.97;3.30;;;;;;;;;;5032795;28;20041;-67
2022/01/12 10:33:04;;;;;;;5.68;3.38;;;;;;;;;;5014494;28;20053;-68
2022/01/12 10:35:33;;;;;;;5.85;3.40;;;;;;;;;;5032223;28;20225;-74
2022/01/12 10:38:14;;;;;;;12.80;4.13;;;;;;;;;;5032743;28;20052;-75
2022/01/12 10:40:45;;;;;;;6.78;3.60;;;;;;;;;;5015098;28;20060;-70
2022/01/12 10:43:28;;;;;;;6.47;3.40;;;;;;;;;;5031388;28;20054;-68
2022/01/12 10:45:56;;;;;;;;;;;;;;;;;;5015710;28;20045;-75
2022/01/12 10:48:25;;;;;;;7.00;3.42;;;;;;;;;;5032837;28;19925;-75
2022/01/12 10:51:01;;;;;;;8.25;3.20;;;;;;;;;;5032637;28;20128;-77
2022/01/12 10:53:31;;;;;;;11.77;3.42;;;;;;;;;;5033000;28;20483;-70
2022/01/12 10:56:09;;;;;;;8.10;3.08;;;;;;;;;;5032248;28;20140;-69
2022/01/12 10:58:37;;;;;;;8.27;3.85;;;;;;;;;;5032597;28;20041;-78
2022/01/12 11:01:05;;;;;;;10.60;3.72;;;;;;;;;;5032286;28;20057;-77
2022/01/12 11:03:33;;;;;;;6.32;3.75;;;;;;;;;;5023714;28;20038;-70
2022/01/12 11:06:01;;;;;;;8.73;3.65;;;;;;;;;;5003382;28;20049;-77
2022/01/12 11:08:29;;;;;;;9.85;3.80;;;;;;;;;;5022452;28;20515;-70
2022/01/12 11:10:57;;;;;;;6.63;3.47;;;;;;;;;;5021535;28;20365;-76
2022/01/12 11:13:26;;;;;;;5.95;3.50;;;;;;;;;;5020691;28;20042;-69
2022/01/12 11:15:54;;;;;;;8.30;4.32;;;;;;;;;;5022235;28;20038;-70
2022/01/12 11:18:23;;;;;;;6.53;4.07;;;;;;;;;;5022917;28;20088;-69
2022/01/12 11:20:51;;;;;;;7.65;3.72;;;;;;;;;;5022773;28;20045;-76
2022/01/12 11:23:20;;;;;;;5.90;4.55;;;;;;;;;;5022359;28;20038;-76
2022/01/12 11:25:49;;;;;;;8.35;4.32;;;;;;;;;;5017898;28;20065;-69
2022/01/12 11:28:26;;;;;;;15.07;4.68;;;;;;;;;;5021880;28;20376;-76
2022/01/12 11:30:57;;;;;;;10.55;4.55;;;;;;;;;;5003528;28;20584;-78
2022/01/12 11:33:33;;;;;;;5.43;3.90;;;;;;;;;;5017743;28;20046;-77
2022/01/12 11:36:02;;;;;;;5.55;3.10;;;;;;;;;;5022791;28;20041;-76
2022/01/12 11:38:31;;;;;;;7.70;3.42;;;;;;;;;;5023038;28;20069;-77
2022/01/12 11:41:22;;;;;;;9.63;3.70;;;;;;;;;;5030174;28;20110;-69
2022/01/12 11:44:04;;;;;;;8.40;3.80;;;;;;;;;;4995969;28;20084;-72
2022/01/12 11:46:49;;;;;;;7.30;3.60;;;;;;;;;;5012217;28;20045;-76
2022/01/12 11:49:44;;;;;;;5.68;3.30;;;;;;;;;;5012305;28;20186;-76
2022/01/12 11:52:16;;;;;;;9.15;3.88;;;;;;;;;;5009545;28;20133;-69
2022/01/12 11:54:47;;;;;;;10.10;4.38;;;;;;;;;;4994976;28;20096;-69
2022/01/12 11:57:19;;;;;;;13.15;4.13;;;;;;;;;;5011779;28;20120;-77
2022/01/12 11:59:57;;;;;;;10.30;3.73;;;;;;;;;;5005403;28;20073;-76
2022/01/12 12:02:34;;;;;;;6.68;3.60;;;;;;;;;;5032404;28;20882;-69
2022/01/12 12:05:03;;;;;;;5.82;3.33;;;;;;;;;;5032344;28;20063;-76
2022/01/12 12:07:31;;;;;;;9.90;3.55;;;;;;;;;;5032324;28;20034;-69
2022/01/12 12:09:59;;;;;;;10.52;3.92;;;;;;;;;;5032041;28;20041;-75
2022/01/12 12:12:37;;;;;;;7.70;3.50;;;;;;;;;;5032000;28;20056;-69
2022/01/12 12:15:05;;;;;;;8.45;4.15;;;;;;;;;;5032356;28;20117;-76
2022/01/12 12:17:34;;;;;;;7.72;3.47;;;;;;;;;;5032398;28;20491;-76
2022/01/12 12:20:04;;;;;;;11.48;3.85;;;;;;;;;;5032139;28;20058;-69
2022/01/12 12:22:32;;;;;;;6.88;4.15;;;;;;;;;;5032290;28;20041;-76
2022/01/12 12:25:06;;;;;;;9.43;3.55;;;;;;;;;;5023372;28;20045;-69
2022/01/12 12:27:35;;;;;;;12.38;3.80;;;;;;;;;;5016214;28;20045;-69
2022/01/12 12:30:04;;;;;;;6.75;3.75;;;;;;;;;;5015878;28;20054;-75
2022/01/12 12:32:45;;;;;;;6.63;3.83;;;;;;;;;;5016082;28;20046;-75
2022/01/12 12:35:14;;;;;;;8.32;3.70;;;;;;;;;;5015905;28;20120;-69
2022/01/12 12:37:43;;;;;;;12.30;4.30;;;;;;;;;;4998427;28;20073;-76
2022/01/12 12:40:13;;;;;;;9.40;4.00;;;;;;;;;;4998447;28;20038;-69
2022/01/12 12:42:43;;;;;;;7.60;4.20;;;;;;;;;;5015788;28;20038;-76
2022/01/12 12:45:11;;;;;;;11.55;4.70;;;;;;;;;;5015493;28;20049;-75
2022/01/12 12:47:38;;;;;;;12.05;4.38;;;;;;;;;;5015672;28;20037;-69
2022/01/12 12:50:08;;;;;;;10.40;4.47;;;;;;;;;;5015788;28;20467;-75
2022/01/12 12:52:38;;;;;;;13.70;4.55;;;;;;;;;;5015575;28;20128;-76
2022/01/12 12:55:16;;;;;;;13.15;4.47;;;;;;;;;;5015343;28;20048;-69
2022/01/12 12:57:53;;;;;;;9.60;4.07;;;;;;;;;;5021689;28;20121;-69
2022/01/12 13:00:26;;;;;;;13.15;4.15;;;;;;;;;;5028312;28;20045;-69
2022/01/12 13:03:14;;;;;;;8.82;4.28;;;;;;;;;;5014303;28;20052;-70
2022/01/12 13:05:42;;;;;;;11.05;4.00;;;;;;;;;;5026760;28;20064;-69
2022/01/12 13:08:10;;;;;;;14.07;4.50;;;;;;;;;;5013893;28;20044;-69
2022/01/12 13:10:42;;;;;;;7.05;3.70;;;;;;;;;;5033439;28;20030;-75
2022/01/12 13:13:11;;;;;;;7.05;3.50;;;;;;;;;;5015693;28;20116;-69
2022/01/12 13:15:40;;;;;;;12.05;3.80;;;;;;;;;;5030276;28;20092;-75
2022/01/12 13:18:15;;;;;;;9.32;3.85;;;;;;;;;;5033145;28;20041;-77
2022/01/12 13:23:32;;;;;;;7.72;3.80;;;;;;;;;;5032566;28;20045;-77
2022/01/12 13:26:05;;;;;;;8.57;4.05;;;;;;;;;;5033788;28;20131;-76
2022/01/12 13:28:37;;;;;;;8.93;3.80;;;;;;;;;;5015495;28;20041;-76
2022/01/12 13:31:07;;;;;;;8.52;3.80;;;;;;;;;;5032485;28;20044;-69
2022/01/12 13:33:36;;;;;;;5.57;3.95;;;;;;;;;;5032498;28;20041;-75
2022/01/12 13:36:14;;;;;;;7.30;3.70;;;;;;;;;;5032904;28;20052;-70
2022/01/12 13:38:43;;;;;;;6.10;3.80;;;;;;;;;;5033215;28;20544;-69
2022/01/12 13:41:15;;;;;;;6.43;3.63;;;;;;;;;;5031962;28;20042;-76
2022/01/12 13:43:50;;;;;;;9.95;3.70;;;;;;;;;;5031765;28;20053;-69
2022/01/12 13:46:19;;;;;;;7.25;3.72;;;;;;;;;;5032544;28;20075;-75
2022/01/12 13:49:21;;;;;;;7.70;3.40;;;;;;;;;;5032915;28;20068;-75
2022/01/12 13:51:53;;;;;;;7.63;3.67;;;;;;;;;;5032703;28;20566;-76
2022/01/12 13:54:20;;;;;;;10.85;4.88;;;;;;;;;;5032884;28;20068;-75
2022/01/12 13:56:52;;;;;;;6.43;3.90;;;;;;;;;;5014195;28;20042;-75
2022/01/12 13:59:20;;;;;;;8.63;3.42;;;;;;;;;;5032767;28;20076;-69
2022/01/12 14:01:48;;;;;;;10.45;4.97;;;;;;;;;;5032581;28;20046;-69
2022/01/12 14:04:34;;;;;;;8.88;4.50;;;;;;;;;;5032431;28;20049;-69
2022/01/12 14:07:06;;;;;;;11.50;4.57;;;;;;;;;;5014403;28;20052;-69
2022/01/12 14:09:38;;;;;;;9.75;4.78;;;;;;;;;;5012828;28;20042;-75
2022/01/12 14:12:12;;;;;;;9.07;4.40;;;;;;;;;;5031107;28;20487;-76
2022/01/12 14:14:53;;;;;;;5.82;3.70;;;;;;;;;;5032547;28;20041;-76
2022/01/12 14:17:25;;;;;;;8.70;3.92;;;;;;;;;;5029793;28;20543;-74
2022/01/12 14:19:54;;;;;;;10.82;3.97;;;;;;;;;;5032788;28;20037;-75
2022/01/12 14:22:22;;;;;;;5.18;3.58;;;;;;;;;;5032143;28;20582;-69
2022/01/12 14:24:58;;;;;;;7.35;4.20;;;;;;;;;;5032293;28;20037;-69
2022/01/12 14:27:37;;;;;;;14.88;5.32;;;;;;;;;;5009370;28;20141;-75
2022/01/12 14:30:06;;;;;;;6.05;3.55;;;;;;;;;;5026740;28;20139;-76
2022/01/12 14:32:36;;;;;;;10.60;4.18;;;;;;;;;;5032227;28;20209;-69
2022/01/12 14:35:08;;;;;;;9.23;4.68;;;;;;;;;;5013144;28;20469;-69
2022/01/12 14:37:36;;;;;;;9.48;3.63;;;;;;;;;;5031860;28;20049;-76
2022/01/12 14:40:05;;;;;;;7.78;3.97;;;;;;;;;;5028662;28;20060;-69
2022/01/12 14:42:41;;;;;;;9.18;3.58;;;;;;;;;;5032195;28;20068;-76
2022/01/12 14:45:10;;;;;;;9.23;3.97;;;;;;;;;;5031502;28;20041;-77
2022/01/12 14:47:38;;;;;;;8.77;3.70;;;;;;;;;;5014157;28;20072;-69
2022/01/12 14:50:07;;;;;;;9.05;4.25;;;;;;;;;;5020231;28;20050;-77
2022/01/12 14:52:35;;;;;;;12.23;5.10;;;;;;;;;;5019570;28;20044;-77
2022/01/12 14:55:04;;;;;;;8.05;4.57;;;;;;;;;;5031754;28;20045;-77
2022/01/12 14:57:32;;;;;;;6.80;4.00;;;;;;;;;;5044628;28;21481;-76
2022/01/12 15:00:00;;;;;;;14.05;4.40;;;;;;;;;;5032443;28;20048;-69
2022/01/12 15:02:28;;;;;;;7.35;4.10;;;;;;;;;;5030200;28;20047;-78
2022/01/12 15:04:56;;;;;;;5.85;3.88;;;;;;;;;;5032380;28;20048;-70
2022/01/12 15:07:23;;;;;;;10.00;4.65;;;;;;;;;;5032637;28;20046;-77
2022/01/12 15:09:50;;;;;;;9.43;4.40;;;;;;;;;;5032033;28;20111;-78
2022/01/12 15:12:26;;;;;;;7.53;4.30;;;;;;;;;;5033027;28;20037;-77
2022/01/12 15:15:03;;;;;;;8.73;4.32;;;;;;;;;;5032837;28;20045;-75
2022/01/12 15:17:31;;;;;;;5.60;3.90;;;;;;;;;;5033191;28;20045;-75
2022/01/12 15:20:02;;;;;;;14.02;4.90;;;;;;;;;;5032648;28;20385;-69
2022/01/12 15:22:29;;;;;;;9.45;4.50;;;;;;;;;;5032647;28;20124;-78
2022/01/12 15:24:56;;;;;;;7.18;4.38;;;;;;;;;;5032823;28;20046;-69
2022/01/12 15:27:24;;;;;;;10.38;4.45;;;;;;;;;;5030714;28;20049;-77
2022/01/12 15:29:53;;;;;;;10.88;4.97;;;;;;;;;;5011755;28;20105;-75
2022/01/12 15:32:21;;;;;;;12.05;5.90;;;;;;;;;;5032478;28;20448;-76
2022/01/12 15:34:48;;;;;;;10.88;5.10;;;;;;;;;;5032227;28;20049;-70
2022/01/12 15:37:16;;;;;;;9.75;5.90;;;;;;;;;;5032473;28;20042;-77
2022/01/12 15:39:43;;;;;;;11.95;6.00;;;;;;;;;;5032300;28;20053;-70
2022/01/12 15:42:11;;;;;;;12.60;5.80;;;;;;;;;;5032283;28;20047;-76
2022/01/12 15:44:39;;;;;;;9.35;5.50;;;;;;;;;;5031707;28;20049;-70
2022/01/12 15:47:09;;;;;;;10.13;6.18;;;;;;;;;;5032582;28;20041;-76
2022/01/12 15:49:37;;;;;;;10.77;6.18;;;;;;;;;;5032216;28;20045;-69
2022/01/12 15:52:04;;;;;;;20.88;6.60;;;;;;;;;;5026569;28;20066;-76
2022/01/12 15:54:31;;;;;;;11.00;5.90;;;;;;;;;;5012928;28;20046;-70
2022/01/12 15:56:59;;;;;;;17.42;6.13;;;;;;;;;;5012610;28;20358;-77
2022/01/12 15:59:27;;;;;;;12.23;5.82;;;;;;;;;;4997919;28;20045;-76
2022/01/12 16:01:55;;;;;;;11.48;6.13;;;;;;;;;;5016051;28;20052;-77
2022/01/12 16:04:23;;;;;;;11.27;6.03;;;;;;;;;;5016461;28;20045;-70
2022/01/12 16:06:50;;;;;;;16.40;7.57;;;;;;;;;;5016684;28;20038;-70
2022/01/12 16:09:18;;;;;;;19.30;8.27;;;;;;;;;;5025675;28;20040;-76
2022/01/12 16:11:47;;;;;;;16.25;8.00;;;;;;;;;;5009168;28;20033;-69
2022/01/12 16:14:34;;;;;;;12.95;8.82;;;;;;;;;;5036146;28;20493;-69
2022/01/12 16:17:04;;;;;;;19.00;9.30;;;;;;;;;;5034414;28;20195;-76
2022/01/12 16:19:32;;;;;;;18.98;9.50;;;;;;;;;;5022612;28;20029;-76
2022/01/12 16:22:00;;;;;;;19.73;9.48;;;;;;;;;;5024809;28;20054;-69
2022/01/12 16:24:27;;;;;;;19.95;9.82;;;;;;;;;;5024933;28;20136;-69